sensor_id;sensor_type;location;lat;lon;timestamp;pressure;altitude;pressure_sealevel;temperature;humidity
31761;BME280;18335;51.486;7.562;2023-04-25T00:01:02;99562.44;;;6.60;100.00
31761;BME280;18335;51.486;7.562;2023-04-25T00:03:29;99556.94;;;6.70;100.00
31761;BME280;18335;51.486;7.562;2023-04-25T00:05:57;99560.63;;;6.43;100.00
31761;BME280;18335;51.486;7.562;2023-04-25T00:08:27;99552.06;;;6.74;100.00
31761;BME280;18335;51.486;7.562;2023-04-25T00:10:54;99557.53;;;6.82;100.00
31761;BME280;18335;51.486;7.562;2023-04-25T00:13:20;99559.38;;;6.55;100.00
31761;BME280;18335;51.486;7.562;2023-04-25T00:15:47;99562.97;;;6.82;100.00
31761;BME280;18335;51.486;7.562;2023-04-25T00:18:14;99566.44;;;6.92;100.00
31761;BME280;18335;51.486;7.562;2023-04-25T00:20:41;99562.09;;;6.99;100.00
31761;BME280;18335;51.486;7.562;2023-04-25T00:23:13;99567.88;;;6.60;100.00
31761;BME280;18335;51.486;7.562;2023-04-25T00:25:43;99573.81;;;6.82;100.00
31761;BME280;18335;51.486;7.562;2023-04-25T00:28:10;99571.53;;;6.95;100.00
31761;BME280;18335;51.486;7.562;2023-04-25T00:30:36;99569.44;;;6.63;100.00
31761;BME280;18335;51.486;7.562;2023-04-25T00:33:03;99574.63;;;6.74;100.00
31761;BME280;18335;51.486;7.562;2023-04-25T00:35:31;99567.28;;;6.92;100.00
31761;BME280;18335;51.486;7.562;2023-04-25T00:37:58;99574.84;;;6.81;100.00
31761;BME280;18335;51.486;7.562;2023-04-25T00:40:26;99571.59;;;6.77;100.00
31761;BME280;18335;51.486;7.562;2023-04-25T00:42:53;99580.56;;;6.78;100.00
31761;BME280;18335;51.486;7.562;2023-04-25T00:45:20;99575.47;;;7.00;100.00
31761;BME280;18335;51.486;7.562;2023-04-25T00:47:47;99568.38;;;6.82;100.00
31761;BME280;18335;51.486;7.562;2023-04-25T00:50:14;99573.19;;;6.88;100.00
31761;BME280;18335;51.486;7.562;2023-04-25T00:52:43;99568.88;;;7.03;100.00
31761;BME280;18335;51.486;7.562;2023-04-25T00:55:11;99570.38;;;6.97;100.00
31761;BME280;18335;51.486;7.562;2023-04-25T00:57:40;99569.41;;;7.06;100.00
31761;BME280;18335;51.486;7.562;2023-04-25T01:00:08;99567.75;;;6.88;100.00
31761;BME280;18335;51.486;7.562;2023-04-25T01:02:37;99572.28;;;7.05;100.00
31761;BME280;18335;51.486;7.562;2023-04-25T01:05:04;99567.53;;;6.99;100.00
31761;BME280;18335;51.486;7.562;2023-04-25T01:07:31;99575.16;;;6.78;100.00
31761;BME280;18335;51.486;7.562;2023-04-25T01:09:58;99571.53;;;6.95;100.00
31761;BME280;18335;51.486;7.562;2023-04-25T01:12:25;99577.91;;;6.86;100.00
31761;BME280;18335;51.486;7.562;2023-04-25T01:14:53;99572.13;;;7.06;100.00
31761;BME280;18335;51.486;7.562;2023-04-25T01:17:20;99570.84;;;7.18;100.00
31761;BME280;18335;51.486;7.562;2023-04-25T01:19:48;99573.94;;;7.23;100.00
31761;BME280;18335;51.486;7.562;2023-04-25T01:22:18;99574.19;;;7.12;100.00
31761;BME280;18335;51.486;7.562;2023-04-25T01:24:46;99575.31;;;7.02;100.00
31761;BME280;18335;51.486;7.562;2023-04-25T01:27:13;99574.75;;;7.16;100.00
31761;BME280;18335;51.486;7.562;2023-04-25T01:29:40;99578.41;;;7.07;100.00
31761;BME280;18335;51.486;7.562;2023-04-25T01:32:08;99567.03;;;7.03;100.00
31761;BME280;18335;51.486;7.562;2023-04-25T01:34:35;99569.25;;;7.08;100.00
31761;BME280;18335;51.486;7.562;2023-04-25T01:37:02;99572.94;;;6.99;100.00
31761;BME280;18335;51.486;7.562;2023-04-25T01:39:30;99571.00;;;7.17;100.00
31761;BME280;18335;51.486;7.562;2023-04-25T01:41:59;99572.97;;;7.07;100.00
31761;BME280;18335;51.486;7.562;2023-04-25T01:44:27;99575.97;;;6.96;100.00
31761;BME280;18335;51.486;7.562;2023-04-25T01:46:54;99570.81;;;7.10;100.00
31761;BME280;18335;51.486;7.562;2023-04-25T01:49:21;99579.72;;;7.03;100.00
31761;BME280;18335;51.486;7.562;2023-04-25T01:51:48;99580.78;;;6.84;100.00
31761;BME280;18335;51.486;7.562;2023-04-25T01:54:15;99579.72;;;7.03;100.00
31761;BME280;18335;51.486;7.562;2023-04-25T01:56:43;99592.97;;;6.80;100.00
31761;BME280;18335;51.486;7.562;2023-04-25T01:59:10;99589.53;;;6.96;100.00
31761;BME280;18335;51.486;7.562;2023-04-25T02:01:56;99589.72;;;7.02;100.00
31761;BME280;18335;51.486;7.562;2023-04-25T02:04:28;99597.25;;;6.91;100.00
31761;BME280;18335;51.486;7.562;2023-04-25T02:06:55;99602.25;;;6.78;100.00
31761;BME280;18335;51.486;7.562;2023-04-25T02:09:22;99600.03;;;6.55;100.00
31761;BME280;18335;51.486;7.562;2023-04-25T02:11:56;99598.63;;;6.87;100.00
31761;BME280;18335;51.486;7.562;2023-04-25T02:14:26;99603.09;;;6.78;100.00
31761;BME280;18335;51.486;7.562;2023-04-25T02:17:02;99599.94;;;6.83;100.00
31761;BME280;18335;51.486;7.562;2023-04-25T02:19:30;99601.66;;;6.48;100.00
31761;BME280;18335;51.486;7.562;2023-04-25T02:21:57;99600.91;;;6.82;100.00
31761;BME280;18335;51.486;7.562;2023-04-25T02:24:24;99603.09;;;6.96;100.00
31761;BME280;18335;51.486;7.562;2023-04-25T02:26:51;99608.34;;;6.97;100.00
31761;BME280;18335;51.486;7.562;2023-04-25T02:29:19;99615.56;;;6.89;100.00
31761;BME280;18335;51.486;7.562;2023-04-25T02:31:46;99607.75;;;6.86;100.00
31761;BME280;18335;51.486;7.562;2023-04-25T02:34:12;99604.63;;;6.98;100.00
31761;BME280;18335;51.486;7.562;2023-04-25T02:36:39;99611.78;;;6.82;100.00
31761;BME280;18335;51.486;7.562;2023-04-25T02:39:06;99620.63;;;6.48;100.00
31761;BME280;18335;51.486;7.562;2023-04-25T02:41:33;99614.16;;;6.85;100.00
31761;BME280;18335;51.486;7.562;2023-04-25T02:44:00;99619.34;;;6.78;100.00
31761;BME280;18335;51.486;7.562;2023-04-25T02:46:28;99625.63;;;6.79;100.00
31761;BME280;18335;51.486;7.562;2023-04-25T02:48:55;99625.94;;;6.76;100.00
31761;BME280;18335;51.486;7.562;2023-04-25T02:51:22;99623.25;;;6.76;100.00
31761;BME280;18335;51.486;7.562;2023-04-25T02:53:48;99622.88;;;6.71;100.00
31761;BME280;18335;51.486;7.562;2023-04-25T02:56:15;99615.53;;;6.63;100.00
31761;BME280;18335;51.486;7.562;2023-04-25T02:58:42;99630.06;;;6.80;100.00
31761;BME280;18335;51.486;7.562;2023-04-25T03:01:10;99623.56;;;6.73;100.00
31761;BME280;18335;51.486;7.562;2023-04-25T03:03:38;99633.53;;;6.54;100.00
31761;BME280;18335;51.486;7.562;2023-04-25T03:06:05;99626.19;;;6.82;100.00
31761;BME280;18335;51.486;7.562;2023-04-25T03:08:32;99627.28;;;6.89;100.00
31761;BME280;18335;51.486;7.562;2023-04-25T03:11:01;99623.66;;;6.81;100.00
31761;BME280;18335;51.486;7.562;2023-04-25T03:13:29;99629.44;;;6.86;100.00
31761;BME280;18335;51.486;7.562;2023-04-25T03:15:56;99620.72;;;6.56;100.00
31761;BME280;18335;51.486;7.562;2023-04-25T03:18:23;99626.81;;;6.76;100.00
31761;BME280;18335;51.486;7.562;2023-04-25T03:20:51;99633.09;;;6.77;100.00
31761;BME280;18335;51.486;7.562;2023-04-25T03:23:18;99630.00;;;6.72;100.00
31761;BME280;18335;51.486;7.562;2023-04-25T03:25:45;99645.25;;;6.55;100.00
31761;BME280;18335;51.486;7.562;2023-04-25T03:28:12;99647.72;;;6.66;100.00
31761;BME280;18335;51.486;7.562;2023-04-25T03:30:38;99641.28;;;6.85;100.00
31761;BME280;18335;51.486;7.562;2023-04-25T03:33:05;99644.63;;;6.61;100.00
31761;BME280;18335;51.486;7.562;2023-04-25T03:35:32;99644.38;;;6.72;100.00
31761;BME280;18335;51.486;7.562;2023-04-25T03:38:00;99642.75;;;6.79;100.00
31761;BME280;18335;51.486;7.562;2023-04-25T03:40:31;99645.66;;;6.78;100.00
31761;BME280;18335;51.486;7.562;2023-04-25T03:43:14;99641.16;;;6.68;100.00
31761;BME280;18335;51.486;7.562;2023-04-25T03:45:47;99638.66;;;6.75;100.00
31761;BME280;18335;51.486;7.562;2023-04-25T03:48:15;99638.19;;;6.80;100.00
31761;BME280;18335;51.486;7.562;2023-04-25T03:50:42;99653.84;;;6.50;100.00
31761;BME280;18335;51.486;7.562;2023-04-25T03:53:10;99657.13;;;6.54;100.00
31761;BME280;18335;51.486;7.562;2023-04-25T03:56:00;99662.75;;;6.60;100.00
31761;BME280;18335;51.486;7.562;2023-04-25T03:58:30;99663.91;;;6.76;100.00
31761;BME280;18335;51.486;7.562;2023-04-25T04:00:57;99669.63;;;6.55;100.00
31761;BME280;18335;51.486;7.562;2023-04-25T04:03:24;99672.22;;;6.74;100.00
31761;BME280;18335;51.486;7.562;2023-04-25T04:05:50;99662.69;;;6.70;100.00
31761;BME280;18335;51.486;7.562;2023-04-25T04:08:19;99668.03;;;6.62;100.00
31761;BME280;18335;51.486;7.562;2023-04-25T04:10:46;99661.69;;;6.71;100.00
31761;BME280;18335;51.486;7.562;2023-04-25T04:13:12;99656.50;;;6.78;100.00
31761;BME280;18335;51.486;7.562;2023-04-25T04:15:39;99666.16;;;6.80;100.00
31761;BME280;18335;51.486;7.562;2023-04-25T04:18:06;99670.97;;;6.86;100.00
31761;BME280;18335;51.486;7.562;2023-04-25T04:20:33;99672.50;;;6.89;100.00
31761;BME280;18335;51.486;7.562;2023-04-25T04:22:59;99675.22;;;6.89;100.00
31761;BME280;18335;51.486;7.562;2023-04-25T04:25:28;99673.38;;;6.72;100.00
31761;BME280;18335;51.486;7.562;2023-04-25T04:28:04;99672.75;;;6.95;100.00
31761;BME280;18335;51.486;7.562;2023-04-25T04:30:57;99680.50;;;6.73;100.00
31761;BME280;18335;51.486;7.562;2023-04-25T04:33:24;99695.25;;;6.43;100.00
31761;BME280;18335;51.486;7.562;2023-04-25T04:35:56;99688.78;;;6.53;100.00
31761;BME280;18335;51.486;7.562;2023-04-25T04:38:23;99685.19;;;6.35;100.00
31761;BME280;18335;51.486;7.562;2023-04-25T04:40:54;99687.59;;;6.38;100.00
31761;BME280;18335;51.486;7.562;2023-04-25T04:43:28;99691.00;;;6.13;100.00
31761;BME280;18335;51.486;7.562;2023-04-25T04:46:07;99699.34;;;6.02;100.00
31761;BME280;18335;51.486;7.562;2023-04-25T04:49:01;99705.44;;;6.04;100.00
31761;BME280;18335;51.486;7.562;2023-04-25T04:51:48;99711.38;;;6.17;100.00
31761;BME280;18335;51.486;7.562;2023-04-25T04:54:40;99711.34;;;6.27;100.00
31761;BME280;18335;51.486;7.562;2023-04-25T04:57:29;99707.84;;;6.34;100.00
31761;BME280;18335;51.486;7.562;2023-04-25T05:00:16;99712.50;;;6.24;100.00
31761;BME280;18335;51.486;7.562;2023-04-25T05:03:02;99714.78;;;6.19;100.00
31761;BME280;18335;51.486;7.562;2023-04-25T05:05:58;99723.91;;;6.45;100.00
31761;BME280;18335;51.486;7.562;2023-04-25T05:08:24;99723.34;;;6.24;100.00
31761;BME280;18335;51.486;7.562;2023-04-25T05:11:02;99726.94;;;6.15;100.00
31761;BME280;18335;51.486;7.562;2023-04-25T05:13:38;99730.75;;;6.22;100.00
31761;BME280;18335;51.486;7.562;2023-04-25T05:16:19;99728.75;;;6.24;100.00
31761;BME280;18335;51.486;7.562;2023-04-25T05:18:51;99734.66;;;6.37;100.00
31761;BME280;18335;51.486;7.562;2023-04-25T05:21:40;99734.97;;;6.34;100.00
31761;BME280;18335;51.486;7.562;2023-04-25T05:24:17;99745.31;;;6.21;100.00
31761;BME280;18335;51.486;7.562;2023-04-25T05:27:09;99745.41;;;6.29;100.00
31761;BME280;18335;51.486;7.562;2023-04-25T05:29:56;99749.09;;;6.01;100.00
31761;BME280;18335;51.486;7.562;2023-04-25T05:32:26;99759.00;;;6.20;100.00
31761;BME280;18335;51.486;7.562;2023-04-25T05:34:53;99761.78;;;6.28;100.00
31761;BME280;18335;51.486;7.562;2023-04-25T05:37:26;99754.75;;;6.07;100.00
31761;BME280;18335;51.486;7.562;2023-04-25T05:40:09;99755.72;;;6.16;100.00
31761;BME280;18335;51.486;7.562;2023-04-25T05:42:54;99762.88;;;6.44;100.00
31761;BME280;18335;51.486;7.562;2023-04-25T05:45:42;99773.91;;;5.96;100.00
31761;BME280;18335;51.486;7.562;2023-04-25T05:48:27;99774.31;;;6.38;100.00
31761;BME280;18335;51.486;7.562;2023-04-25T05:51:13;99767.63;;;6.60;100.00
31761;BME280;18335;51.486;7.562;2023-04-25T05:54:00;99779.00;;;6.36;100.00
31761;BME280;18335;51.486;7.562;2023-04-25T05:56:27;99778.22;;;6.53;100.00
31761;BME280;18335;51.486;7.562;2023-04-25T05:58:55;99787.03;;;6.83;100.00
31761;BME280;18335;51.486;7.562;2023-04-25T06:01:23;99778.59;;;6.58;100.00
31761;BME280;18335;51.486;7.562;2023-04-25T06:03:50;99784.50;;;6.99;100.00
31761;BME280;18335;51.486;7.562;2023-04-25T06:06:18;99779.59;;;6.57;100.00
31761;BME280;18335;51.486;7.562;2023-04-25T06:08:45;99781.69;;;6.91;100.00
31761;BME280;18335;51.486;7.562;2023-04-25T06:11:12;99791.28;;;7.03;100.00
31761;BME280;18335;51.486;7.562;2023-04-25T06:13:39;99787.91;;;7.01;100.00
31761;BME280;18335;51.486;7.562;2023-04-25T06:16:07;99789.69;;;7.28;100.00
31761;BME280;18335;51.486;7.562;2023-04-25T06:18:35;99794.31;;;7.17;100.00
31761;BME280;18335;51.486;7.562;2023-04-25T06:21:01;99798.19;;;6.97;100.00
31761;BME280;18335;51.486;7.562;2023-04-25T06:23:28;99793.94;;;7.30;100.00
31761;BME280;18335;51.486;7.562;2023-04-25T06:26:01;99800.91;;;7.15;100.00
31761;BME280;18335;51.486;7.562;2023-04-25T06:28:29;99804.31;;;7.17;100.00
31761;BME280;18335;51.486;7.562;2023-04-25T06:30:56;99807.19;;;7.51;100.00
31761;BME280;18335;51.486;7.562;2023-04-25T06:33:23;99807.25;;;7.59;100.00
31761;BME280;18335;51.486;7.562;2023-04-25T06:35:52;99814.16;;;7.36;100.00
31761;BME280;18335;51.486;7.562;2023-04-25T06:38:23;99802.94;;;7.48;100.00
31761;BME280;18335;51.486;7.562;2023-04-25T06:40:51;99807.03;;;7.52;100.00
31761;BME280;18335;51.486;7.562;2023-04-25T06:43:18;99807.25;;;7.41;100.00
31761;BME280;18335;51.486;7.562;2023-04-25T06:45:57;99817.38;;;7.31;100.00
31761;BME280;18335;51.486;7.562;2023-04-25T06:48:27;99815.94;;;7.45;100.00
31761;BME280;18335;51.486;7.562;2023-04-25T06:50:56;99820.94;;;7.49;100.00
31761;BME280;18335;51.486;7.562;2023-04-25T06:53:23;99817.03;;;7.52;100.00
31761;BME280;18335;51.486;7.562;2023-04-25T06:55:56;99813.47;;;7.51;100.00
31761;BME280;18335;51.486;7.562;2023-04-25T06:58:28;99818.38;;;7.30;100.00
31761;BME280;18335;51.486;7.562;2023-04-25T07:00:58;99813.47;;;7.51;100.00
31761;BME280;18335;51.486;7.562;2023-04-25T07:03:25;99820.81;;;7.59;100.00
31761;BME280;18335;51.486;7.562;2023-04-25T07:05:59;99818.47;;;7.82;100.00
31761;BME280;18335;51.486;7.562;2023-04-25T07:08:26;99809.47;;;7.81;100.00
31761;BME280;18335;51.486;7.562;2023-04-25T07:10:53;99808.94;;;7.77;100.00
31761;BME280;18335;51.486;7.562;2023-04-25T07:13:19;99811.38;;;7.89;100.00
31761;BME280;18335;51.486;7.562;2023-04-25T07:15:46;99812.00;;;7.82;100.00
31761;BME280;18335;51.486;7.562;2023-04-25T07:18:15;99816.84;;;8.14;100.00
31761;BME280;18335;51.486;7.562;2023-04-25T07:20:42;99809.16;;;8.10;100.00
31761;BME280;18335;51.486;7.562;2023-04-25T07:23:10;99820.28;;;8.24;100.00
31761;BME280;18335;51.486;7.562;2023-04-25T07:25:38;99823.44;;;8.12;100.00
31761;BME280;18335;51.486;7.562;2023-04-25T07:28:05;99820.63;;;8.47;100.00
31761;BME280;18335;51.486;7.562;2023-04-25T07:30:32;99823.56;;;8.28;100.00
31761;BME280;18335;51.486;7.562;2023-04-25T07:33:03;99820.09;;;8.44;100.00
31761;BME280;18335;51.486;7.562;2023-04-25T07:35:29;99815.50;;;8.78;100.00
31761;BME280;18335;51.486;7.562;2023-04-25T07:37:56;99828.69;;;8.65;100.00
31761;BME280;18335;51.486;7.562;2023-04-25T07:40:25;99827.91;;;8.80;100.00
31761;BME280;18335;51.486;7.562;2023-04-25T07:42:57;99827.50;;;8.67;100.00
31761;BME280;18335;51.486;7.562;2023-04-25T07:45:51;99834.84;;;8.75;100.00
31761;BME280;18335;51.486;7.562;2023-04-25T07:48:19;99843.84;;;8.75;100.00
31761;BME280;18335;51.486;7.562;2023-04-25T07:50:46;99843.28;;;8.64;100.00
31761;BME280;18335;51.486;7.562;2023-04-25T07:53:14;99849.00;;;8.86;100.00
31761;BME280;18335;51.486;7.562;2023-04-25T07:55:49;99855.00;;;8.56;100.00
31761;BME280;18335;51.486;7.562;2023-04-25T07:58:17;99850.78;;;8.70;100.00
31761;BME280;18335;51.486;7.562;2023-04-25T08:00:48;99847.63;;;8.82;100.00
31761;BME280;18335;51.486;7.562;2023-04-25T08:03:29;99860.16;;;8.75;100.00
31761;BME280;18335;51.486;7.562;2023-04-25T08:05:57;99867.88;;;8.88;100.00
31761;BME280;18335;51.486;7.562;2023-04-25T08:08:26;99868.41;;;8.92;100.00
31761;BME280;18335;51.486;7.562;2023-04-25T08:10:54;99869.94;;;8.94;100.00
31761;BME280;18335;51.486;7.562;2023-04-25T08:13:21;99880.63;;;8.87;100.00
31761;BME280;18335;51.486;7.562;2023-04-25T08:15:48;99876.97;;;8.63;100.00
31761;BME280;18335;51.486;7.562;2023-04-25T08:18:14;99877.13;;;8.69;100.00
31761;BME280;18335;51.486;7.562;2023-04-25T08:20:42;99878.38;;;8.75;100.00
31761;BME280;18335;51.486;7.562;2023-04-25T08:23:10;99879.81;;;8.61;100.00
31761;BME280;18335;51.486;7.562;2023-04-25T08:25:52;99887.91;;;8.79;100.00
31761;BME280;18335;51.486;7.562;2023-04-25T08:28:24;99890.94;;;9.18;100.00
31761;BME280;18335;51.486;7.562;2023-04-25T08:30:52;99890.59;;;9.13;100.00
31761;BME280;18335;51.486;7.562;2023-04-25T08:33:19;99898.50;;;9.40;100.00
31761;BME280;18335;51.486;7.562;2023-04-25T08:35:56;99905.19;;;9.04;100.00
31761;BME280;18335;51.486;7.562;2023-04-25T08:38:24;99903.44;;;9.36;100.00
31761;BME280;18335;51.486;7.562;2023-04-25T08:40:53;99903.91;;;9.24;100.00
31761;BME280;18335;51.486;7.562;2023-04-25T08:43:24;99914.63;;;9.25;100.00
31761;BME280;18335;51.486;7.562;2023-04-25T08:45:52;99915.84;;;9.31;100.00
31761;BME280;18335;51.486;7.562;2023-04-25T08:48:45;99919.03;;;9.26;100.00
31761;BME280;18335;51.486;7.562;2023-04-25T08:51:20;99917.84;;;9.29;100.00
31761;BME280;18335;51.486;7.562;2023-04-25T08:53:51;99924.75;;;9.57;100.00
31761;BME280;18335;51.486;7.562;2023-04-25T08:56:19;99918.84;;;9.70;100.00
31761;BME280;18335;51.486;7.562;2023-04-25T08:58:50;99925.97;;;9.71;100.00
31761;BME280;18335;51.486;7.562;2023-04-25T09:01:17;99934.66;;;9.74;100.00
31761;BME280;18335;51.486;7.562;2023-04-25T09:03:50;99933.69;;;10.16;100.00
31761;BME280;18335;51.486;7.562;2023-04-25T09:06:17;99922.31;;;10.20;100.00
31761;BME280;18335;51.486;7.562;2023-04-25T09:08:49;99936.41;;;10.08;100.00
31761;BME280;18335;51.486;7.562;2023-04-25T09:11:17;99935.38;;;10.00;100.00
31761;BME280;18335;51.486;7.562;2023-04-25T09:13:45;99949.22;;;10.15;100.00
31761;BME280;18335;51.486;7.562;2023-04-25T09:16:24;99946.25;;;9.92;100.00
31761;BME280;18335;51.486;7.562;2023-04-25T09:19:21;99945.56;;;9.74;100.00
31761;BME280;18335;51.486;7.562;2023-04-25T09:21:48;99955.13;;;9.86;100.00
31761;BME280;18335;51.486;7.562;2023-04-25T09:24:15;99959.91;;;9.92;100.00
31761;BME280;18335;51.486;7.562;2023-04-25T09:26:42;99959.31;;;9.65;100.00
31761;BME280;18335;51.486;7.562;2023-04-25T09:29:09;99960.50;;;9.62;100.00
31761;BME280;18335;51.486;7.562;2023-04-25T09:31:41;99962.56;;;9.68;100.00
31761;BME280;18335;51.486;7.562;2023-04-25T09:34:10;99970.66;;;9.44;100.00
31761;BME280;18335;51.486;7.562;2023-04-25T09:36:44;99969.63;;;8.95;100.00
31761;BME280;18335;51.486;7.562;2023-04-25T09:39:17;99970.66;;;9.36;100.00
31761;BME280;18335;51.486;7.562;2023-04-25T09:41:53;99973.31;;;9.20;100.00
31761;BME280;18335;51.486;7.562;2023-04-25T09:44:23;99978.16;;;9.42;100.00
31761;BME280;18335;51.486;7.562;2023-04-25T09:46:53;99977.75;;;9.29;100.00
31761;BME280;18335;51.486;7.562;2023-04-25T09:49:22;99994.13;;;9.03;100.00
31761;BME280;18335;51.486;7.562;2023-04-25T09:51:59;99986.50;;;9.07;100.00
31761;BME280;18335;51.486;7.562;2023-04-25T09:54:32;99982.28;;;9.12;100.00
31761;BME280;18335;51.486;7.562;2023-04-25T09:57:11;99986.44;;;9.24;100.00
31761;BME280;18335;51.486;7.562;2023-04-25T09:59:39;99989.81;;;9.26;100.00
31761;BME280;18335;51.486;7.562;2023-04-25T10:02:11;100003.53;;;9.09;100.00
31761;BME280;18335;51.486;7.562;2023-04-25T10:04:39;99999.47;;;9.13;100.00
31761;BME280;18335;51.486;7.562;2023-04-25T10:07:33;100004.31;;;9.35;100.00
31761;BME280;18335;51.486;7.562;2023-04-25T10:10:07;100002.88;;;9.57;100.00
31761;BME280;18335;51.486;7.562;2023-04-25T10:12:34;99995.63;;;9.73;100.00
31761;BME280;18335;51.486;7.562;2023-04-25T10:15:02;100000.06;;;9.32;100.00
31761;BME280;18335;51.486;7.562;2023-04-25T10:17:31;100001.25;;;9.30;100.00
31761;BME280;18335;51.486;7.562;2023-04-25T10:19:57;100001.53;;;9.53;100.00
31761;BME280;18335;51.486;7.562;2023-04-25T10:22:29;99997.75;;;10.12;100.00
31761;BME280;18335;51.486;7.562;2023-04-25T10:24:57;99997.78;;;10.76;100.00
31761;BME280;18335;51.486;7.562;2023-04-25T10:27:26;99995.22;;;10.59;100.00
31761;BME280;18335;51.486;7.562;2023-04-25T10:30:00;99991.13;;;11.34;100.00
31761;BME280;18335;51.486;7.562;2023-04-25T10:32:31;99991.31;;;11.79;100.00
31761;BME280;18335;51.486;7.562;2023-04-25T10:35:10;99997.25;;;11.83;100.00
31761;BME280;18335;51.486;7.562;2023-04-25T10:37:37;99989.88;;;11.91;100.00
31761;BME280;18335;51.486;7.562;2023-04-25T10:40:08;99989.63;;;11.62;100.00
31761;BME280;18335;51.486;7.562;2023-04-25T10:42:36;99996.22;;;11.45;100.00
31761;BME280;18335;51.486;7.562;2023-04-25T10:45:05;99997.09;;;10.74;100.00
31761;BME280;18335;51.486;7.562;2023-04-25T10:47:43;100003.59;;;10.65;100.00
31761;BME280;18335;51.486;7.562;2023-04-25T10:50:10;100002.75;;;10.32;100.00
31761;BME280;18335;51.486;7.562;2023-04-25T10:52:38;99998.31;;;10.72;100.00
31761;BME280;18335;51.486;7.562;2023-04-25T10:55:06;99995.72;;;10.70;100.00
31761;BME280;18335;51.486;7.562;2023-04-25T10:57:37;99997.78;;;10.76;100.00
31761;BME280;18335;51.486;7.562;2023-04-25T11:00:10;99994.00;;;10.85;100.00
31761;BME280;18335;51.486;7.562;2023-04-25T11:02:40;99998.50;;;10.54;100.00
31761;BME280;18335;51.486;7.562;2023-04-25T11:05:08;100006.47;;;10.64;100.00
31761;BME280;18335;51.486;7.562;2023-04-25T11:07:39;100011.41;;;10.28;100.00
31761;BME280;18335;51.486;7.562;2023-04-25T11:10:10;100016.69;;;10.13;100.00
31761;BME280;18335;51.486;7.562;2023-04-25T11:12:36;100013.06;;;9.88;100.00
31761;BME280;18335;51.486;7.562;2023-04-25T11:15:04;100021.22;;;9.88;100.00
31761;BME280;18335;51.486;7.562;2023-04-25T11:17:32;100021.81;;;9.58;100.00
31761;BME280;18335;51.486;7.562;2023-04-25T11:20:03;100034.22;;;9.53;100.00
31761;BME280;18335;51.486;7.562;2023-04-25T11:22:34;100033.81;;;9.89;100.00
31761;BME280;18335;51.486;7.562;2023-04-25T11:25:05;100035.44;;;9.58;100.00
31761;BME280;18335;51.486;7.562;2023-04-25T11:27:32;100046.31;;;9.58;100.00
31761;BME280;18335;51.486;7.562;2023-04-25T11:29:59;100043.44;;;9.68;100.00
31761;BME280;18335;51.486;7.562;2023-04-25T11:32:26;100037.19;;;9.83;100.00
31761;BME280;18335;51.486;7.562;2023-04-25T11:34:53;100045.22;;;9.85;100.00
31761;BME280;18335;51.486;7.562;2023-04-25T11:37:21;100044.63;;;9.65;100.00
31761;BME280;18335;51.486;7.562;2023-04-25T11:39:48;100054.06;;;10.45;100.00
31761;BME280;18335;51.486;7.562;2023-04-25T11:42:15;100054.56;;;10.73;100.00
31761;BME280;18335;51.486;7.562;2023-04-25T11:44:41;100053.19;;;10.36;100.00
31761;BME280;18335;51.486;7.562;2023-04-25T11:47:08;100058.97;;;10.17;100.00
31761;BME280;18335;51.486;7.562;2023-04-25T11:49:35;100051.16;;;10.30;100.00
31761;BME280;18335;51.486;7.562;2023-04-25T11:52:02;100049.63;;;10.36;100.00
31761;BME280;18335;51.486;7.562;2023-04-25T11:54:30;100043.38;;;9.93;100.00
31761;BME280;18335;51.486;7.562;2023-04-25T11:56:57;100049.78;;;10.42;100.00
31761;BME280;18335;51.486;7.562;2023-04-25T11:59:24;100045.69;;;10.46;100.00
31761;BME280;18335;51.486;7.562;2023-04-25T12:01:52;100044.16;;;10.84;100.00
31761;BME280;18335;51.486;7.562;2023-04-25T12:04:20;100053.94;;;10.05;100.00
31761;BME280;18335;51.486;7.562;2023-04-25T12:06:49;100059.31;;;10.22;100.00
31761;BME280;18335;51.486;7.562;2023-04-25T12:09:17;100049.28;;;10.55;100.00
31761;BME280;18335;51.486;7.562;2023-04-25T12:11:47;100050.44;;;10.36;100.00
31761;BME280;18335;51.486;7.562;2023-04-25T12:14:21;100054.91;;;10.45;100.00
31761;BME280;18335;51.486;7.562;2023-04-25T12:16:48;100055.53;;;11.20;100.00
31761;BME280;18335;51.486;7.562;2023-04-25T12:19:15;100055.94;;;11.56;98.86
31761;BME280;18335;51.486;7.562;2023-04-25T12:21:43;100046.13;;;11.31;95.90
31761;BME280;18335;51.486;7.562;2023-04-25T12:24:11;100048.81;;;11.39;100.00
31761;BME280;18335;51.486;7.562;2023-04-25T12:26:53;100051.88;;;11.52;92.27
31761;BME280;18335;51.486;7.562;2023-04-25T12:29:26;100052.78;;;11.83;92.52
31761;BME280;18335;51.486;7.562;2023-04-25T12:31:54;100042.66;;;12.45;93.75
31761;BME280;18335;51.486;7.562;2023-04-25T12:34:23;100052.00;;;12.28;78.86
31761;BME280;18335;51.486;7.562;2023-04-25T12:36:50;100049.72;;;12.62;77.65
31761;BME280;18335;51.486;7.562;2023-04-25T12:39:19;100049.81;;;12.24;78.32
31761;BME280;18335;51.486;7.562;2023-04-25T12:41:47;100057.22;;;12.15;79.01
31761;BME280;18335;51.486;7.562;2023-04-25T12:44:16;100049.69;;;11.86;66.00
31761;BME280;18335;51.486;7.562;2023-04-25T12:46:43;100056.66;;;12.50;59.46
31761;BME280;18335;51.486;7.562;2023-04-25T12:49:10;100037.09;;;12.76;61.61
31761;BME280;18335;51.486;7.562;2023-04-25T12:51:37;100046.06;;;12.47;66.44
31761;BME280;18335;51.486;7.562;2023-04-25T12:54:05;100048.47;;;12.19;66.24
31761;BME280;18335;51.486;7.562;2023-04-25T12:56:32;100049.84;;;11.46;76.39
31761;BME280;18335;51.486;7.562;2023-04-25T12:58:59;100053.63;;;11.37;74.34
31761;BME280;18335;51.486;7.562;2023-04-25T13:01:27;100060.84;;;11.14;71.54
31761;BME280;18335;51.486;7.562;2023-04-25T13:03:54;100075.16;;;11.16;70.91
31761;BME280;18335;51.486;7.562;2023-04-25T13:06:22;100065.28;;;11.06;70.47
31761;BME280;18335;51.486;7.562;2023-04-25T13:08:48;100062.22;;;11.09;67.27
31761;BME280;18335;51.486;7.562;2023-04-25T13:11:15;100055.50;;;11.36;82.16
31761;BME280;18335;51.486;7.562;2023-04-25T13:13:43;100062.28;;;11.48;84.12